Time;durP1;ratioP1;P1;durP2;ratioP2;P2;SDS_P1;SDS_P2;PMS_P1;PMS_P2;Temp;Humidity;BMP_temperature;BMP_pressure;BME280_temperature;BME280_humidity;BME280_pressure;Samples;Min_cycle;Max_cycle;Signal;HPM_P1;HPM_P2
2022/03/17 00:03:46;;;;;;;43.57;33.70;;;9.80;86.40;;;;;;5006214;28;20952;-85
2022/03/17 00:25:34;;;;;;;44.70;32.03;;;9.70;88.20;;;;;;4944930;29;21005;-85
2022/03/17 00:32:27;;;;;;;;;;;;;;;;;;;;;
2022/03/17 00:37:40;;;;;;;46.87;33.87;;;9.70;88.90;;;;;;5061218;28;20613;-82
2022/03/17 00:40:08;;;;;;;43.83;34.83;;;9.70;88.60;;;;;;5053183;28;20459;-82
2022/03/17 00:42:35;;;;;;;42.43;30.90;;;9.80;88.20;;;;;;5041090;28;20452;-83
2022/03/17 00:45:02;;;;;;;43.53;31.17;;;9.80;88.10;;;;;;5041336;28;20546;-82
2022/03/17 00:47:29;;;;;;;40.87;31.87;;;9.70;88.10;;;;;;5041166;28;20455;-83
2022/03/17 00:49:56;;;;;;;39.03;31.93;;;9.80;87.80;;;;;;5040983;28;20449;-82
2022/03/17 00:52:23;;;;;;;41.10;32.90;;;9.80;87.80;;;;;;5041160;28;20453;-82
2022/03/17 00:54:51;;;;;;;44.07;32.90;;;9.70;87.40;;;;;;5041535;28;20472;-82
2022/03/17 00:57:17;;;;;;;47.33;33.60;;;9.80;87.50;;;;;;5040987;28;20870;-83
2022/03/17 00:59:44;;;;;;;41.40;31.87;;;9.80;87.30;;;;;;5041252;28;20445;-82
2022/03/17 01:02:12;;;;;;;40.80;31.57;;;9.90;87.40;;;;;;5040570;28;20456;-81
2022/03/17 01:04:39;;;;;;;46.50;35.23;;;9.80;86.40;;;;;;5040249;28;21004;-82
2022/03/17 01:07:06;;;;;;;42.27;31.40;;;9.90;86.20;;;;;;5041563;28;20968;-83
2022/03/17 01:09:33;;;;;;;44.17;32.80;;;9.90;85.80;;;;;;5040582;28;20452;-82
2022/03/17 01:12:01;;;;;;;44.53;34.10;;;9.90;86.30;;;;;;5041433;28;20465;-82
2022/03/17 01:14:28;;;;;;;43.03;32.60;;;9.90;85.80;;;;;;5040750;28;20472;-82
2022/03/17 01:16:55;;;;;;;40.00;31.37;;;9.90;85.50;;;;;;5041027;28;20487;-82
2022/03/17 01:19:22;;;;;;;41.20;31.90;;;9.90;85.50;;;;;;5040295;28;20452;-82
2022/03/17 01:21:50;;;;;;;39.17;30.07;;;9.90;85.50;;;;;;5041906;28;20455;-82
2022/03/17 01:24:17;;;;;;;43.80;32.97;;;9.90;85.50;;;;;;5040605;28;20502;-82
2022/03/17 01:26:44;;;;;;;47.10;33.80;;;10.00;84.60;;;;;;5041475;28;20459;-82
2022/03/17 01:29:13;;;;;;;42.60;32.17;;;9.90;86.20;;;;;;5040379;28;20463;-82
2022/03/17 01:31:39;;;;;;;40.50;30.80;;;9.90;85.80;;;;;;5039828;28;20461;-82
2022/03/17 01:34:06;;;;;;;43.63;33.07;;;9.90;85.50;;;;;;5040432;28;20484;-82
2022/03/17 01:36:33;;;;;;;45.07;33.50;;;9.90;85.50;;;;;;5041013;28;20526;-82
2022/03/17 01:39:00;;;;;;;41.17;30.10;;;9.90;85.60;;;;;;5040018;28;20964;-82
2022/03/17 01:41:27;;;;;;;41.47;33.17;;;9.90;85.50;;;;;;5040392;28;20463;-82
2022/03/17 01:43:54;;;;;;;40.00;30.70;;;9.90;84.50;;;;;;5040863;28;20464;-82
2022/03/17 01:46:22;;;;;;;42.90;31.93;;;9.90;84.00;;;;;;5040695;28;20456;-83
2022/03/17 01:48:48;;;;;;;41.63;32.60;;;10.00;82.40;;;;;;5039964;28;20459;-82
2022/03/17 01:51:15;;;;;;;45.57;33.53;;;10.00;82.60;;;;;;5041087;28;20463;-82
2022/03/17 01:53:43;;;;;;;40.73;30.17;;;10.00;82.80;;;;;;5040350;28;21015;-82
2022/03/17 01:56:12;;;;;;;45.30;29.57;;;9.90;83.60;;;;;;5040626;28;20452;-81
2022/03/17 01:58:39;;;;;;;41.70;32.13;;;10.00;83.00;;;;;;5039397;28;20456;-82
2022/03/17 02:01:06;;;;;;;40.93;32.30;;;9.90;84.20;;;;;;5040046;28;20456;-82
2022/03/17 02:03:34;;;;;;;41.07;31.73;;;10.00;82.60;;;;;;5039384;28;20472;-80
2022/03/17 02:06:01;;;;;;;44.90;32.90;;;9.90;84.30;;;;;;5040380;28;20556;-82
2022/03/17 02:08:28;;;;;;;39.40;32.40;;;9.90;84.10;;;;;;5038578;28;20451;-82
2022/03/17 02:13:40;;;;;;;43.23;33.50;;;9.90;84.10;;;;;;5039754;28;20551;-83
2022/03/17 02:16:07;;;;;;;45.90;32.60;;;9.80;84.50;;;;;;5040121;28;20452;-82
2022/03/17 02:18:35;;;;;;;45.67;34.80;;;9.90;84.70;;;;;;5039480;28;20694;-83
2022/03/17 02:21:02;;;;;;;49.10;34.17;;;9.90;84.60;;;;;;5039738;28;20452;-83
2022/03/17 02:26:17;;;;;;;42.63;32.90;;;9.90;84.20;;;;;;5039910;28;20439;-82
2022/03/17 02:28:46;;;;;;;40.30;30.73;;;10.00;84.30;;;;;;5039469;28;20453;-79
2022/03/17 02:31:13;;;;;;;45.20;35.17;;;9.90;84.10;;;;;;5039505;28;20448;-82
2022/03/17 02:33:42;;;;;;;42.63;33.10;;;10.00;82.70;;;;;;5039342;28;20486;-82
2022/03/17 02:36:09;;;;;;;44.57;31.20;;;10.00;81.90;;;;;;5039423;28;20452;-82
2022/03/17 02:38:37;;;;;;;39.37;32.27;;;10.10;81.10;;;;;;5039426;28;20487;-82
2022/03/17 02:41:04;;;;;;;42.60;33.40;;;10.10;81.90;;;;;;5038759;28;20456;-82
2022/03/17 02:43:30;;;;;;;43.37;31.20;;;10.10;81.40;;;;;;5039274;28;20480;-83
2022/03/17 02:45:57;;;;;;;44.50;32.30;;;10.10;80.50;;;;;;5040257;28;20993;-83
2022/03/17 02:48:24;;;;;;;44.83;30.43;;;10.20;81.30;;;;;;5040512;28;20452;-82
2022/03/17 02:50:51;;;;;;;41.93;30.67;;;10.20;81.90;;;;;;5039793;28;20448;-82
2022/03/17 02:53:18;;;;;;;43.70;34.17;;;10.20;82.30;;;;;;5038147;28;20502;-82
2022/03/17 02:55:47;;;;;;;41.40;33.60;;;10.10;81.40;;;;;;5039449;28;20452;-82
2022/03/17 02:58:14;;;;;;;45.67;33.67;;;10.20;82.70;;;;;;5039460;28;20483;-81
2022/03/17 03:00:42;;;;;;;47.80;34.07;;;10.20;82.20;;;;;;5039395;28;20448;-82
2022/03/17 03:03:08;;;;;;;47.47;33.70;;;10.10;82.60;;;;;;5039729;28;20552;-81
2022/03/17 03:05:38;;;;;;;47.50;34.67;;;10.10;84.70;;;;;;5039202;28;20480;-81
2022/03/17 03:08:05;;;;;;;42.50;32.60;;;10.10;83.50;;;;;;5039546;28;20488;-80
2022/03/17 03:10:33;;;;;;;42.40;32.30;;;10.10;83.20;;;;;;5039681;28;20460;-81
2022/03/17 03:13:01;;;;;;;46.67;35.57;;;10.10;83.20;;;;;;5040296;28;20495;-81
2022/03/17 03:15:29;;;;;;;49.20;34.10;;;10.00;82.50;;;;;;5040716;28;20483;-81
2022/03/17 03:17:56;;;;;;;49.60;34.97;;;10.10;82.10;;;;;;5040374;28;20468;-82
2022/03/17 03:20:23;;;;;;;46.27;34.80;;;10.10;82.20;;;;;;5040298;28;20452;-81
2022/03/17 03:22:49;;;;;;;41.90;31.87;;;10.20;81.20;;;;;;5041064;28;20448;-82
2022/03/17 03:25:16;;;;;;;46.87;34.40;;;10.10;80.90;;;;;;5042628;28;20988;-82
2022/03/17 03:27:44;;;;;;;49.13;35.17;;;10.20;81.90;;;;;;5042128;28;20524;-81
2022/03/17 03:30:13;;;;;;;47.80;36.53;;;10.10;81.50;;;;;;5037615;28;20483;-82
2022/03/17 03:32:40;;;;;;;45.10;35.27;;;10.10;82.30;;;;;;5039239;28;20452;-82
2022/03/17 03:37:49;;;;;;;49.97;37.40;;;10.20;81.80;;;;;;5037982;28;20472;-82
2022/03/17 03:40:15;;;;;;;48.87;35.50;;;10.30;81.60;;;;;;5040305;28;20462;-82
2022/03/17 03:42:42;;;;;;;52.80;38.20;;;10.20;81.40;;;;;;5042173;28;20448;-82
2022/03/17 03:45:11;;;;;;;48.67;36.73;;;10.20;81.40;;;;;;5039175;28;20464;-82
2022/03/17 03:47:39;;;;;;;49.50;37.80;;;10.20;81.50;;;;;;5037163;28;20450;-79
2022/03/17 03:50:07;;;;;;;58.83;42.53;;;10.20;82.80;;;;;;5033618;28;20864;-83
2022/03/17 03:52:37;;;;;;;74.57;53.07;;;10.20;83.50;;;;;;5041739;28;20448;-84
2022/03/17 03:55:04;;;;;;;55.37;39.70;;;10.10;84.70;;;;;;5038984;28;20468;-82
2022/03/17 03:57:31;;;;;;;55.07;39.73;;;10.20;85.50;;;;;;5042174;28;20468;-82
2022/03/17 03:59:58;;;;;;;55.60;42.80;;;10.10;86.50;;;;;;5042569;28;20460;-82
2022/03/17 04:02:25;;;;;;;61.87;45.13;;;10.00;89.50;;;;;;5046650;28;20456;-82
2022/03/17 04:04:53;;;;;;;62.70;46.77;;;10.00;90.90;;;;;;5044792;28;20468;-82
2022/03/17 04:07:19;;;;;;;59.73;42.00;;;9.90;93.50;;;;;;5045118;28;20802;-82
2022/03/17 04:09:46;;;;;;;59.10;44.07;;;9.90;91.40;;;;;;5045710;28;20458;-81
2022/03/17 04:12:14;;;;;;;64.40;45.30;;;10.10;91.00;;;;;;5044386;28;20444;-81
2022/03/17 04:14:41;;;;;;;64.10;52.70;;;10.00;91.50;;;;;;5043378;28;20468;-83
2022/03/17 04:17:08;;;;;;;72.80;60.10;;;9.90;96.20;;;;;;5041440;28;20447;-82
2022/03/17 04:19:35;;;;;;;77.13;68.97;;;9.80;98.00;;;;;;5038710;28;20452;-80
2022/03/17 04:22:03;;;;;;;102.87;93.57;;;9.70;99.90;;;;;;5043141;28;20449;-80
2022/03/17 04:24:30;;;;;;;117.17;107.87;;;9.70;99.90;;;;;;5043584;28;20986;-81
2022/03/17 04:26:57;;;;;;;177.97;166.63;;;9.60;99.90;;;;;;5042832;28;20476;-82
2022/03/17 04:29:28;;;;;;;268.10;254.17;;;9.60;99.90;;;;;;5044031;28;20467;-83
2022/03/17 04:31:54;;;;;;;198.13;186.40;;;9.50;99.90;;;;;;5047949;28;20483;-82
2022/03/17 04:34:21;;;;;;;124.80;115.67;;;9.50;99.90;;;;;;5046293;28;20491;-80
2022/03/17 04:36:48;;;;;;;170.90;160.23;;;9.60;99.90;;;;;;5044439;28;20455;-80
2022/03/17 04:39:16;;;;;;;232.73;220.40;;;9.50;99.90;;;;;;5038920;28;20468;-80
2022/03/17 04:41:43;;;;;;;282.53;269.63;;;9.50;99.90;;;;;;5041529;28;20452;-80
2022/03/17 04:44:10;;;;;;;259.43;247.37;;;9.50;99.90;;;;;;5042888;28;20476;-79
2022/03/17 04:46:37;;;;;;;383.53;367.77;;;9.50;99.90;;;;;;5042797;28;20452;-80
2022/03/17 04:49:04;;;;;;;303.77;289.93;;;9.60;99.90;;;;;;5041132;28;20471;-80
2022/03/17 04:51:32;;;;;;;419.60;402.37;;;9.50;99.90;;;;;;5023909;28;20452;-80
2022/03/17 04:53:58;;;;;;;467.07;445.50;;;9.50;99.90;;;;;;5031169;28;20499;-80
2022/03/17 04:56:26;;;;;;;529.73;505.17;;;9.30;99.90;;;;;;5033780;28;20460;-80
2022/03/17 04:58:53;;;;;;;535.43;509.93;;;9.40;99.90;;;;;;5037833;28;20476;-79
2022/03/17 05:01:20;;;;;;;461.37;440.33;;;9.40;99.90;;;;;;5047283;28;20456;-79
2022/03/17 05:03:47;;;;;;;495.87;470.63;;;9.50;99.90;;;;;;5043591;28;20478;-79
2022/03/17 05:06:15;;;;;;;552.07;523.00;;;9.40;99.90;;;;;;5043402;28;20452;-80
2022/03/17 05:08:42;;;;;;;587.87;553.67;;;9.40;99.90;;;;;;5043748;28;20445;-80
2022/03/17 05:11:10;;;;;;;594.60;559.40;;;9.40;99.90;;;;;;5039796;28;20459;-81
2022/03/17 05:13:39;;;;;;;613.50;575.03;;;9.40;99.90;;;;;;5039655;28;20499;-80
2022/03/17 05:16:07;;;;;;;635.00;592.70;;;9.40;99.90;;;;;;5041476;28;20472;-83
2022/03/17 05:18:34;;;;;;;618.03;575.83;;;9.40;99.90;;;;;;5037014;28;20480;-82
2022/03/17 05:21:01;;;;;;;707.97;656.97;;;9.50;99.90;;;;;;5041096;28;20448;-81
2022/03/17 05:23:30;;;;;;;729.80;672.73;;;9.40;99.90;;;;;;5039084;28;20453;-81
2022/03/17 05:25:57;;;;;;;795.13;730.40;;;9.50;99.90;;;;;;5041689;28;20452;-80
2022/03/17 05:28:24;;;;;;;671.67;620.20;;;9.80;99.90;;;;;;5042153;28;20477;-81
2022/03/17 05:30:52;;;;;;;683.43;634.63;;;9.90;99.90;;;;;;5039481;28;20448;-82
2022/03/17 05:33:19;;;;;;;679.07;632.17;;;9.80;99.90;;;;;;5044540;28;20448;-81
2022/03/17 05:35:46;;;;;;;719.43;669.03;;;9.90;99.90;;;;;;5043128;28;20452;-81
2022/03/17 05:38:13;;;;;;;669.47;621.47;;;9.90;99.90;;;;;;5037814;28;20483;-81
2022/03/17 05:40:40;;;;;;;689.30;639.57;;;9.80;99.90;;;;;;5040841;28;20448;-81
2022/03/17 05:43:09;;;;;;;684.50;635.00;;;9.80;99.90;;;;;;5041070;28;20459;-83
2022/03/17 05:45:37;;;;;;;657.47;610.83;;;9.70;99.90;;;;;;5037462;28;21064;-82
2022/03/17 05:48:07;;;;;;;611.37;569.60;;;9.70;99.90;;;;;;5039179;28;20452;-81
2022/03/17 05:50:37;;;;;;;636.43;590.77;;;9.60;99.90;;;;;;5039069;28;20456;-81
2022/03/17 05:53:04;;;;;;;720.07;664.70;;;9.50;99.90;;;;;;5041247;28;20772;-81
2022/03/17 05:55:31;;;;;;;707.00;654.20;;;9.50;99.90;;;;;;5039382;28;20476;-80
2022/03/17 05:57:58;;;;;;;667.83;619.73;;;9.30;99.90;;;;;;5035249;28;20479;-80
2022/03/17 06:00:27;;;;;;;632.23;587.37;;;9.30;99.90;;;;;;5039029;28;20458;-81
2022/03/17 06:02:55;;;;;;;662.93;615.13;;;9.20;99.90;;;;;;5038808;28;20452;-81
2022/03/17 06:05:24;;;;;;;601.07;560.37;;;9.10;99.90;;;;;;5039528;28;20496;-80
2022/03/17 06:07:52;;;;;;;502.27;470.70;;;9.00;99.90;;;;;;5041359;28;20459;-82
2022/03/17 06:10:22;;;;;;;501.07;471.47;;;9.00;99.90;;;;;;5059043;28;20451;-82
2022/03/17 06:12:51;;;;;;;584.87;547.07;;;9.00;99.90;;;;;;5049137;28;20452;-81
2022/03/17 06:15:19;;;;;;;614.63;575.07;;;9.00;99.90;;;;;;5042070;28;20468;-82
2022/03/17 06:17:48;;;;;;;682.80;637.30;;;8.80;99.90;;;;;;5037938;28;21096;-81
2022/03/17 06:20:17;;;;;;;657.07;617.40;;;8.80;99.90;;;;;;5039898;28;20498;-80
2022/03/17 06:22:47;;;;;;;689.33;646.27;;;8.80;99.90;;;;;;5040111;28;20464;-81
2022/03/17 06:25:17;;;;;;;700.37;657.03;;;8.80;99.90;;;;;;5038788;28;20472;-80
2022/03/17 06:27:44;;;;;;;767.83;711.93;;;8.90;99.90;;;;;;5041826;28;20807;-81
2022/03/17 06:30:13;;;;;;;749.67;695.67;;;8.80;99.90;;;;;;5040341;28;20451;-80
2022/03/17 06:32:41;;;;;;;752.20;697.97;;;8.80;99.90;;;;;;5041756;28;20534;-80
2022/03/17 06:35:18;;;;;;;741.90;688.20;;;8.80;99.90;;;;;;5091932;22;21087;-83
2022/03/17 06:37:49;;;;;;;758.07;703.70;;;8.80;99.90;;;;;;5035104;28;20819;-83
2022/03/17 06:40:35;;;;;;;741.03;688.80;;;8.80;99.90;;;;;;5035920;28;20796;-83
2022/03/17 06:43:04;;;;;;;770.97;715.37;;;8.70;99.90;;;;;;5039437;28;20448;-84
2022/03/17 06:45:38;;;;;;;763.90;708.70;;;8.70;99.90;;;;;;5039096;28;20464;-83
2022/03/17 06:48:13;;;;;;;736.37;686.67;;;8.70;99.90;;;;;;5039813;28;20451;-82
2022/03/17 06:50:42;;;;;;;737.37;686.20;;;8.70;99.90;;;;;;5029035;28;20559;-84
2022/03/17 06:53:10;;;;;;;753.10;698.73;;;8.70;99.90;;;;;;5014871;28;20464;-83
2022/03/17 06:55:37;;;;;;;740.43;691.50;;;8.70;99.90;;;;;;5012791;28;20477;-83
2022/03/17 06:58:04;;;;;;;763.53;707.93;;;8.70;99.90;;;;;;5013991;28;20481;-82
2022/03/17 07:00:31;;;;;;;746.30;690.17;;;8.60;99.90;;;;;;5014384;28;20468;-83
2022/03/17 07:02:57;;;;;;;747.97;692.67;;;8.60;99.90;;;;;;5013933;28;20480;-84
2022/03/17 07:05:24;;;;;;;697.93;653.47;;;8.50;99.90;;;;;;5014628;28;20480;-84
2022/03/17 07:07:51;;;;;;;693.57;651.47;;;8.60;99.90;;;;;;5014421;28;20461;-83
2022/03/17 07:10:19;;;;;;;710.17;665.07;;;8.60;99.90;;;;;;5013940;28;20452;-84
2022/03/17 07:12:47;;;;;;;666.37;632.77;;;8.60;99.90;;;;;;5014362;28;20453;-83
2022/03/17 07:15:14;;;;;;;711.97;672.00;;;8.60;99.90;;;;;;5017116;28;20492;-83
2022/03/17 07:17:42;;;;;;;724.17;682.90;;;8.60;99.90;;;;;;5016665;28;20454;-84
2022/03/17 07:20:10;;;;;;;659.43;628.37;;;8.60;99.90;;;;;;5015715;28;20485;-84
2022/03/17 07:22:39;;;;;;;652.03;621.90;;;8.80;99.90;;;;;;5015765;28;20466;-84
2022/03/17 07:25:07;;;;;;;508.50;488.23;;;8.80;99.90;;;;;;5016950;28;20503;-84
2022/03/17 07:27:40;;;;;;;355.60;341.27;;;8.90;99.90;;;;;;5013109;28;20461;-83
2022/03/17 07:30:08;;;;;;;362.03;348.23;;;9.00;99.90;;;;;;5013546;28;20441;-84
2022/03/17 07:32:35;;;;;;;153.27;146.63;;;9.00;99.90;;;;;;5013331;28;20457;-83
2022/03/17 07:35:01;;;;;;;208.00;199.87;;;9.00;99.90;;;;;;5013861;28;20476;-83
2022/03/17 07:37:28;;;;;;;148.00;141.60;;;8.90;99.90;;;;;;5015238;28;20453;-82
2022/03/17 07:39:55;;;;;;;114.77;109.03;;;8.80;99.90;;;;;;5016961;28;20480;-85
2022/03/17 07:42:22;;;;;;;134.83;129.10;;;8.80;99.90;;;;;;5016988;28;20464;-83
2022/03/17 07:44:50;;;;;;;191.87;184.27;;;8.80;99.90;;;;;;5017519;28;20473;-83
2022/03/17 07:47:17;;;;;;;178.77;170.70;;;8.70;99.90;;;;;;5015731;28;20457;-84
2022/03/17 07:49:44;;;;;;;189.90;182.37;;;8.60;99.90;;;;;;5016667;28;20453;-83
2022/03/17 07:52:11;;;;;;;301.53;289.50;;;8.60;99.90;;;;;;5017369;28;20460;-83
2022/03/17 07:54:38;;;;;;;307.80;296.63;;;8.60;99.90;;;;;;5019266;28;20476;-84
2022/03/17 07:57:05;;;;;;;389.33;374.77;;;8.40;99.90;;;;;;5019079;28;20449;-84
2022/03/17 07:59:33;;;;;;;475.30;456.33;;;8.40;99.90;;;;;;5019558;28;20489;-83
2022/03/17 08:02:03;;;;;;;386.80;372.67;;;8.50;99.90;;;;;;5019396;28;20942;-84
2022/03/17 08:04:30;;;;;;;248.43;238.73;;;8.60;99.90;;;;;;5018481;28;20504;-83
2022/03/17 08:07:00;;;;;;;332.43;319.83;;;8.60;99.90;;;;;;5017513;28;20456;-84
2022/03/17 08:09:27;;;;;;;137.87;131.17;;;8.60;99.90;;;;;;5014859;28;20548;-84
2022/03/17 08:11:54;;;;;;;164.00;157.33;;;8.70;99.90;;;;;;5016554;28;20461;-82
2022/03/17 08:14:20;;;;;;;41.50;38.50;;;8.70;99.90;;;;;;5014992;28;20560;-83
2022/03/17 08:16:47;;;;;;;85.83;81.53;;;8.80;99.90;;;;;;5017216;28;20464;-82
2022/03/17 08:19:15;;;;;;;64.93;61.10;;;8.70;99.90;;;;;;5017566;28;20477;-83
2022/03/17 08:21:42;;;;;;;85.17;80.27;;;8.70;99.90;;;;;;5016842;28;20457;-84
2022/03/17 08:24:09;;;;;;;59.03;55.63;;;8.60;99.90;;;;;;5019286;28;20484;-84
2022/03/17 08:26:37;;;;;;;49.93;46.40;;;8.60;99.90;;;;;;5019841;28;20460;-84
2022/03/17 08:29:04;;;;;;;25.87;23.80;;;8.60;99.90;;;;;;5018962;28;20469;-84
2022/03/17 08:31:31;;;;;;;47.20;44.30;;;8.60;99.90;;;;;;5019968;28;20504;-82
2022/03/17 08:33:58;;;;;;;30.67;27.80;;;8.60;99.90;;;;;;5018434;28;20488;-84
2022/03/17 08:36:27;;;;;;;30.47;28.07;;;8.50;99.90;;;;;;5021792;28;20445;-84
2022/03/17 08:38:54;;;;;;;29.53;26.90;;;8.60;99.90;;;;;;5016707;28;20993;-84
2022/03/17 08:41:21;;;;;;;27.60;21.93;;;8.60;99.90;;;;;;5018487;28;20449;-82
2022/03/17 08:43:48;;;;;;;21.20;16.57;;;8.50;99.90;;;;;;5019596;28;20938;-82
2022/03/17 08:51:45;;;;;;;28.50;26.60;;;8.60;99.90;;;;;;5022649;28;20495;-84
2022/03/17 08:54:12;;;;;;;20.33;18.50;;;8.50;99.90;;;;;;5020496;28;20484;-84
2022/03/17 08:56:39;;;;;;;20.10;18.23;;;8.50;99.90;;;;;;5020949;28;20555;-84
2022/03/17 08:59:06;;;;;;;33.90;31.80;;;8.50;99.90;;;;;;5024284;28;20480;-85
2022/03/17 09:01:33;;;;;;;17.40;15.93;;;8.50;99.90;;;;;;5022546;28;20461;-83
2022/03/17 09:04:00;;;;;;;20.40;18.43;;;8.40;99.90;;;;;;5025310;28;20484;-83
2022/03/17 09:06:28;;;;;;;32.75;30.05;;;8.60;99.90;;;;;;5021481;28;20454;-85
2022/03/17 09:08:56;;;;;;;26.37;24.17;;;8.60;99.90;;;;;;5024628;28;20202;-84
2022/03/17 09:11:23;;;;;;;14.63;13.20;;;8.50;99.90;;;;;;5027571;28;20460;-82
2022/03/17 09:13:50;;;;;;;23.03;18.40;;;8.60;99.90;;;;;;5026681;28;20456;-84
2022/03/17 09:16:17;;;;;;;14.80;13.40;;;8.60;99.90;;;;;;5026301;28;20458;-83
2022/03/17 09:18:43;;;;;;;12.73;9.47;;;8.60;99.90;;;;;;5021263;28;20477;-83
2022/03/17 09:21:10;;;;;;;9.57;6.53;;;8.60;99.90;;;;;;5023121;28;20449;-83
2022/03/17 09:23:37;;;;;;;16.57;13.07;;;8.60;99.90;;;;;;5028099;28;20457;-80
2022/03/17 09:26:05;;;;;;;17.20;15.63;;;8.60;99.90;;;;;;5030356;28;20449;-84
2022/03/17 09:28:32;;;;;;;20.00;18.20;;;8.60;99.90;;;;;;5029651;28;20908;-87
2022/03/17 09:30:59;;;;;;;31.13;29.13;;;8.70;99.90;;;;;;5029810;28;20452;-84
2022/03/17 09:33:25;;;;;;;19.67;18.07;;;8.90;99.90;;;;;;5027671;28;20529;-83
2022/03/17 09:35:53;;;;;;;19.43;17.50;;;9.20;99.90;;;;;;5026325;28;20490;-84
2022/03/17 09:38:20;;;;;;;15.17;13.57;;;9.20;99.90;;;;;;5027247;28;20468;-84
2022/03/17 09:40:47;;;;;;;20.23;15.97;;;9.20;99.90;;;;;;5021700;28;20477;-84
2022/03/17 09:43:22;;;;;;;17.50;15.63;;;9.30;99.90;;;;;;5023967;28;20461;-84
2022/03/17 09:45:52;;;;;;;18.97;15.33;;;9.40;99.90;;;;;;5023567;28;20476;-84
2022/03/17 09:48:20;;;;;;;13.30;11.90;;;9.40;99.90;;;;;;5022610;28;20454;-84
2022/03/17 09:50:48;;;;;;;19.03;13.10;;;9.40;99.30;;;;;;5024460;28;20486;-84
2022/03/17 09:53:15;;;;;;;17.07;15.47;;;9.30;99.50;;;;;;5023190;28;20464;-84
2022/03/17 09:55:43;;;;;;;20.10;10.73;;;9.30;99.90;;;;;;5023724;28;20484;-84
2022/03/17 09:58:11;;;;;;;18.33;11.27;;;9.30;98.80;;;;;;5025622;28;20460;-83
2022/03/17 10:00:49;;;;;;;12.87;8.90;;;9.50;99.40;;;;;;5024228;28;20481;-84
2022/03/17 10:03:17;;;;;;;12.70;10.10;;;9.70;98.40;;;;;;5024901;28;20552;-85
2022/03/17 10:05:46;;;;;;;7.13;6.43;;;9.70;97.90;;;;;;5022154;28;20474;-85
2022/03/17 10:08:13;;;;;;;13.80;5.60;;;9.90;97.60;;;;;;5023179;28;20531;-84
2022/03/17 10:10:42;;;;;;;11.87;5.33;;;9.70;94.50;;;;;;5021798;28;20452;-84
2022/03/17 10:13:13;;;;;;;10.33;5.67;;;9.60;94.60;;;;;;5022803;28;20847;-84
2022/03/17 10:15:41;;;;;;;12.17;4.63;;;9.50;94.80;;;;;;5020475;28;20472;-84
2022/03/17 10:18:19;;;;;;;8.33;5.33;;;9.40;94.00;;;;;;5021312;28;20543;-83
2022/03/17 10:20:46;;;;;;;8.60;4.67;;;9.40;93.60;;;;;;5024124;28;20519;-85
2022/03/17 10:23:13;;;;;;;8.30;4.43;;;9.40;95.30;;;;;;5020736;28;20461;-84
2022/03/17 10:25:40;;;;;;;8.27;4.70;;;9.30;94.70;;;;;;5017870;28;20477;-85
2022/03/17 10:28:10;;;;;;;10.37;4.70;;;9.20;94.30;;;;;;5020127;28;20456;-83
2022/03/17 10:30:37;;;;;;;9.20;3.87;;;9.30;95.50;;;;;;5022229;28;20449;-84
2022/03/17 10:33:09;;;;;;;12.87;4.87;;;9.30;94.00;;;;;;5021150;28;20457;-85
2022/03/17 10:35:38;;;;;;;11.00;4.47;;;9.30;95.70;;;;;;5021604;28;21028;-85
2022/03/17 10:38:12;;;;;;;13.43;3.30;;;9.50;96.00;;;;;;5020487;28;20540;-83
2022/03/17 10:40:40;;;;;;;5.13;3.30;;;9.90;92.60;;;;;;5021805;28;20472;-85
2022/03/17 10:43:17;;;;;;;6.20;2.80;;;10.00;94.30;;;;;;5020074;28;20515;-84
2022/03/17 10:45:44;;;;;;;5.53;2.17;;;9.80;91.70;;;;;;5018100;28;20508;-83
2022/03/17 10:48:13;;;;;;;5.53;2.00;;;9.70;89.60;;;;;;5017707;28;20625;-84
2022/03/17 10:50:41;;;;;;;5.07;1.90;;;9.60;91.20;;;;;;5017325;28;20453;-85
2022/03/17 10:53:08;;;;;;;7.97;3.67;;;9.60;91.20;;;;;;5022390;28;20451;-85
2022/03/17 10:55:36;;;;;;;7.43;2.67;;;9.70;91.30;;;;;;5021338;28;20481;-84
2022/03/17 10:58:14;;;;;;;9.10;3.20;;;9.90;91.70;;;;;;5019690;28;20460;-84
2022/03/17 11:00:49;;;;;;;8.00;3.53;;;10.10;91.00;;;;;;5019728;28;20559;-85
2022/03/17 11:03:19;;;;;;;5.70;2.57;;;10.30;88.40;;;;;;5018407;28;20460;-85
2022/03/17 11:05:46;;;;;;;10.57;3.20;;;10.30;84.10;;;;;;5018010;28;20832;-84
2022/03/17 11:08:14;;;;;;;5.53;2.13;;;10.10;81.60;;;;;;5014729;28;20202;-83
2022/03/17 11:10:41;;;;;;;11.57;3.00;;;10.10;81.90;;;;;;5016622;28;20968;-84
2022/03/17 11:13:11;;;;;;;9.73;3.50;;;10.30;86.30;;;;;;5019174;28;20460;-84
2022/03/17 11:15:39;;;;;;;11.27;3.00;;;10.40;83.60;;;;;;5018811;28;20545;-84
2022/03/17 11:18:07;;;;;;;5.90;2.40;;;10.70;83.10;;;;;;5016858;28;20867;-81
2022/03/17 11:20:35;;;;;;;9.60;3.10;;;10.70;84.00;;;;;;5016553;28;20627;-83
2022/03/17 11:23:30;;;;;;;6.37;2.27;;;10.80;82.70;;;;;;5018637;28;20461;-84
2022/03/17 11:25:59;;;;;;;6.37;2.67;;;10.70;83.20;;;;;;5016981;28;20472;-83
2022/03/17 11:28:33;;;;;;;12.97;3.63;;;10.40;78.80;;;;;;5017156;28;20449;-85
2022/03/17 11:31:01;;;;;;;11.80;4.00;;;10.30;80.60;;;;;;5017228;28;20449;-84
2022/03/17 11:33:31;;;;;;;10.17;3.67;;;10.30;81.60;;;;;;5019259;28;20480;-84
2022/03/17 11:36:01;;;;;;;7.40;2.50;;;10.30;84.90;;;;;;5015438;28;20465;-84
2022/03/17 11:38:30;;;;;;;8.40;3.03;;;10.30;81.80;;;;;;5015985;28;20815;-84
2022/03/17 11:41:08;;;;;;;11.40;3.60;;;10.20;83.40;;;;;;5019885;28;21019;-85
2022/03/17 11:43:54;;;;;;;10.13;3.53;;;10.10;81.30;;;;;;5019172;28;20453;-84
2022/03/17 11:46:23;;;;;;;10.33;4.90;;;10.10;83.10;;;;;;5009690;28;20465;-85
2022/03/17 11:48:51;;;;;;;16.70;4.30;;;10.10;83.90;;;;;;5017745;28;20460;-85
2022/03/17 11:51:20;;;;;;;11.60;3.13;;;10.10;84.10;;;;;;5018811;28;20449;-84
2022/03/17 11:53:48;;;;;;;7.73;3.30;;;10.20;83.30;;;;;;5020108;28;20461;-84
2022/03/17 11:56:32;;;;;;;9.90;4.23;;;10.20;84.40;;;;;;5019777;28;20449;-84
2022/03/17 11:58:59;;;;;;;13.43;3.83;;;10.50;85.80;;;;;;5020847;28;20456;-84
2022/03/17 12:01:28;;;;;;;10.85;3.78;;;10.70;77.60;;;;;;5019204;28;20450;-88
2022/03/17 12:03:57;;;;;;;7.97;3.40;;;10.90;74.10;;;;;;5017032;28;20218;-86
2022/03/17 12:06:26;;;;;;;9.07;4.13;;;10.90;69.90;;;;;;5016269;28;21016;-87
2022/03/17 12:09:02;;;;;;;11.53;2.63;;;11.10;68.80;;;;;;5015011;28;20446;-85
2022/03/17 12:11:31;;;;;;;9.17;2.60;;;11.00;71.90;;;;;;5014629;28;20914;-85
2022/03/17 12:14:19;;;;;;;7.97;3.07;;;11.00;70.00;;;;;;5016134;28;20484;-84
2022/03/17 12:16:48;;;;;;;10.90;4.33;;;11.30;67.70;;;;;;5018685;28;20456;-84
2022/03/17 12:19:32;;;;;;;10.57;3.93;;;11.30;67.20;;;;;;5019911;28;20460;-84
2022/03/17 12:22:39;;;;;;;9.47;3.43;;;11.30;68.60;;;;;;5019645;28;20589;-85
2022/03/17 12:25:14;;;;;;;9.43;3.10;;;11.30;67.20;;;;;;5019295;28;20527;-85
2022/03/17 12:27:55;;;;;;;8.67;3.30;;;11.20;62.10;;;;;;5020324;28;20600;-84
2022/03/17 12:30:24;;;;;;;15.43;4.20;;;11.10;62.70;;;;;;5017413;28;20816;-84
2022/03/17 12:32:52;;;;;;;11.17;3.47;;;11.00;65.90;;;;;;5017619;28;20453;-84
2022/03/17 12:35:24;;;;;;;13.97;4.30;;;10.90;63.00;;;;;;5061240;22;20666;-84
2022/03/17 12:38:02;;;;;;;10.63;3.60;;;11.00;62.00;;;;;;5038182;28;20454;-82
2022/03/17 12:40:36;;;;;;;8.00;3.10;;;11.00;67.40;;;;;;5036478;28;20518;-84
2022/03/17 12:43:17;;;;;;;13.73;4.10;;;10.90;61.80;;;;;;5036864;28;20465;-84
2022/03/17 12:45:45;;;;;;;15.33;3.87;;;11.00;58.90;;;;;;5037426;28;21058;-84
2022/03/17 12:48:14;;;;;;;9.83;3.10;;;11.10;62.00;;;;;;5036539;28;20519;-85
2022/03/17 12:50:41;;;;;;;11.73;3.50;;;11.20;57.40;;;;;;5037208;28;20456;-84
2022/03/17 12:53:14;;;;;;;8.48;2.95;;;11.20;62.10;;;;;;5036362;28;20525;-85
2022/03/17 12:55:41;;;;;;;9.57;2.97;;;11.20;55.30;;;;;;5038228;28;20457;-84
2022/03/17 12:58:16;;;;;;;11.73;3.13;;;11.10;58.20;;;;;;5036943;28;20196;-85
2022/03/17 13:03:29;;;;;;;9.10;2.77;;;11.10;53.60;;;;;;5022583;28;20477;-84
2022/03/17 13:09:00;;;;;;;15.00;2.73;;;11.00;56.50;;;;;;5037190;28;20455;-86
2022/03/17 13:14:29;;;;;;;8.90;2.43;;;10.80;57.20;;;;;;5035183;28;20516;-85
2022/03/17 13:17:02;;;;;;;11.80;3.90;;;10.70;57.60;;;;;;5035275;28;20456;-84
2022/03/17 13:19:43;;;;;;;10.63;3.60;;;10.60;57.10;;;;;;5035361;28;20456;-86
2022/03/17 13:22:09;;;;;;;15.63;5.27;;;10.70;56.40;;;;;;5036083;28;20535;-84
2022/03/17 13:24:38;;;;;;;14.93;3.30;;;10.80;58.10;;;;;;5039370;28;20478;-82
2022/03/17 13:27:05;;;;;;;9.67;3.67;;;10.80;57.10;;;;;;5041001;28;20494;-86
2022/03/17 13:29:35;;;;;;;14.97;4.07;;;10.80;58.60;;;;;;5041855;28;20449;-84
2022/03/17 13:32:04;;;;;;;15.17;4.80;;;10.60;58.00;;;;;;5041796;28;20543;-83